createdAt,value
2019-04-30T00:02:34.601Z,19.40
2019-04-30T00:05:18.730Z,18.52
2019-04-30T00:08:06.036Z,18.85
2019-04-30T00:10:55.428Z,18.42
2019-04-30T00:13:42.515Z,18.67
2019-04-30T00:16:31.016Z,18.73
2019-04-30T00:19:19.789Z,19.50
2019-04-30T00:22:07.043Z,19.55
2019-04-30T00:24:55.608Z,18.85
2019-04-30T00:27:43.244Z,18.87
2019-04-30T00:30:31.923Z,18.65
2019-04-30T00:33:22.051Z,18.75
2019-04-30T00:36:07.783Z,18.48
2019-04-30T00:38:55.435Z,19.60
2019-04-30T00:41:45.969Z,18.62
2019-04-30T00:44:31.081Z,18.80
2019-04-30T00:47:18.564Z,18.98
2019-04-30T00:52:57.876Z,18.87
2019-04-30T00:55:48.397Z,18.35
2019-04-30T00:58:35.276Z,19.55
2019-04-30T01:01:43.554Z,18.85
2019-04-30T01:04:34.967Z,18.98
2019-04-30T01:07:22.203Z,19.80
2019-04-30T01:10:11.220Z,18.52
2019-04-30T01:13:01.228Z,19.30
2019-04-30T01:15:48.950Z,20.02
2019-04-30T01:18:36.339Z,19.05
2019-04-30T01:21:23.799Z,18.10
2019-04-30T01:24:11.520Z,18.05
2019-04-30T01:27:02.129Z,18.65
2019-04-30T01:29:48.714Z,18.95
2019-04-30T01:32:36.708Z,17.85
2019-04-30T01:35:28.289Z,18.65
2019-04-30T01:38:12.971Z,19.45
2019-04-30T01:41:00.283Z,19.67
2019-04-30T01:43:48.722Z,18.52
2019-04-30T01:46:35.973Z,17.98
2019-04-30T01:49:25.769Z,18.42
2019-04-30T01:52:12.788Z,18.50
2019-04-30T01:55:00.070Z,18.45
2019-04-30T01:57:49.210Z,18.62
2019-04-30T02:00:54.941Z,19.57
2019-04-30T02:03:42.495Z,17.17
2019-04-30T02:06:29.848Z,18.55
2019-04-30T02:09:18.906Z,16.93
2019-04-30T02:12:06.084Z,19.02
2019-04-30T02:14:53.191Z,18.25
2019-04-30T02:17:40.685Z,18.87
2019-04-30T02:20:28.882Z,17.00
2019-04-30T02:23:15.979Z,18.25
2019-04-30T02:26:03.167Z,17.35
2019-04-30T02:28:50.688Z,17.85
2019-04-30T02:31:40.562Z,17.40
2019-04-30T02:34:30.240Z,17.07
2019-04-30T02:37:24.312Z,17.77
2019-04-30T02:40:12.016Z,17.95
2019-04-30T02:43:01.877Z,15.80
2019-04-30T02:45:50.896Z,17.32
2019-04-30T02:48:39.701Z,15.65
2019-04-30T02:51:30.138Z,17.65
2019-04-30T02:54:23.711Z,17.32
2019-04-30T02:57:11.559Z,17.10
2019-04-30T03:00:06.539Z,17.00
2019-04-30T03:02:53.750Z,17.82
2019-04-30T03:05:41.082Z,17.70
2019-04-30T03:08:29.797Z,17.52
2019-04-30T03:11:20.299Z,16.87
2019-04-30T03:14:06.721Z,16.40
2019-04-30T03:17:10.455Z,17.35
2019-04-30T03:20:03.515Z,16.90
2019-04-30T03:22:51.297Z,16.55
2019-04-30T03:25:40.549Z,16.85
2019-04-30T03:28:30.065Z,17.15
2019-04-30T03:31:17.045Z,16.48
2019-04-30T03:34:04.457Z,16.32
2019-04-30T03:36:51.618Z,18.20
2019-04-30T03:39:39.918Z,16.30
2019-04-30T03:42:29.446Z,16.52
2019-04-30T03:45:16.215Z,16.75
2019-04-30T03:48:03.406Z,16.57
2019-04-30T03:50:56.660Z,16.50
2019-04-30T03:53:42.748Z,16.77
2019-04-30T03:56:29.925Z,16.95
2019-04-30T03:59:19.982Z,16.97
2019-04-30T04:02:12.274Z,16.82
2019-04-30T04:05:01.111Z,16.95
2019-04-30T04:07:52.470Z,17.37
2019-04-30T04:10:40.351Z,16.32
2019-04-30T04:13:30.023Z,16.45
2019-04-30T04:16:19.504Z,15.68
2019-04-30T04:19:05.752Z,17.00
2019-04-30T04:21:52.976Z,16.75
2019-04-30T04:24:40.712Z,16.27
2019-04-30T04:27:30.305Z,16.73
2019-04-30T04:30:17.078Z,15.68
2019-04-30T04:33:04.275Z,17.48
2019-04-30T04:35:51.584Z,16.10
2019-04-30T04:38:40.346Z,16.15
2019-04-30T04:41:29.503Z,15.50
2019-04-30T04:44:16.692Z,16.70
2019-04-30T04:47:04.005Z,16.25
2019-04-30T04:49:53.914Z,16.02
2019-04-30T04:52:39.846Z,16.37
2019-04-30T04:55:26.635Z,15.55
2019-04-30T04:58:14.053Z,16.65
2019-04-30T05:01:01.565Z,16.32
2019-04-30T05:03:49.003Z,15.63
2019-04-30T05:06:36.485Z,17.05
2019-04-30T05:12:09.391Z,15.88
2019-04-30T05:17:42.331Z,16.77
2019-04-30T05:20:29.540Z,16.70
2019-04-30T05:23:17.004Z,17.52
2019-04-30T05:26:04.375Z,16.85
2019-04-30T05:28:52.990Z,16.12
2019-04-30T05:31:39.832Z,17.10
2019-04-30T05:34:28.811Z,16.70
2019-04-30T05:37:18.383Z,17.15
2019-04-30T05:40:09.401Z,18.42
2019-04-30T05:42:56.444Z,16.75
2019-04-30T05:45:43.397Z,16.95
2019-04-30T05:48:30.712Z,17.05
2019-04-30T05:51:19.402Z,16.10
2019-04-30T05:54:06.535Z,16.85
2019-04-30T05:56:53.667Z,16.50
2019-04-30T05:59:41.553Z,16.85
2019-04-30T06:02:33.089Z,17.42
2019-04-30T06:05:18.922Z,15.70
2019-04-30T06:08:19.205Z,15.75
2019-04-30T06:11:09.362Z,14.80
2019-04-30T06:13:58.903Z,15.75
2019-04-30T06:16:49.213Z,15.90
2019-04-30T06:19:39.054Z,15.10
2019-04-30T06:22:26.127Z,15.72
2019-04-30T06:25:13.397Z,15.35
2019-04-30T06:28:00.805Z,15.25
2019-04-30T06:30:49.292Z,15.05
2019-04-30T06:33:38.863Z,15.80
2019-04-30T06:36:28.529Z,14.53
2019-04-30T06:39:15.620Z,14.80
2019-04-30T06:42:10.164Z,14.53
2019-04-30T06:44:54.017Z,13.75
2019-04-30T06:47:42.044Z,14.45
2019-04-30T06:50:29.557Z,13.28
2019-04-30T06:53:19.105Z,13.38
2019-04-30T06:56:08.801Z,12.13
2019-04-30T06:58:55.323Z,12.53
2019-04-30T07:01:44.653Z,12.75
2019-04-30T07:04:32.162Z,12.13
2019-04-30T07:07:23.062Z,11.70
2019-04-30T07:10:16.765Z,11.33
2019-04-30T07:13:05.437Z,10.72
2019-04-30T07:15:52.667Z,9.95
2019-04-30T07:18:40.288Z,10.55
2019-04-30T07:21:31.210Z,9.48
2019-04-30T07:24:17.035Z,7.90
2019-04-30T07:27:05.723Z,8.50
2019-04-30T07:29:53.058Z,8.68
2019-04-30T07:32:41.130Z,8.40
2019-04-30T07:35:29.235Z,8.18
2019-04-30T07:38:19.287Z,8.28
2019-04-30T07:41:06.274Z,8.08
2019-04-30T07:43:53.646Z,6.97
2019-04-30T07:46:45.286Z,7.15
2019-04-30T07:49:46.463Z,7.83
2019-04-30T07:52:21.439Z,7.33
2019-04-30T07:55:09.867Z,6.85
2019-04-30T07:57:58.994Z,6.60
2019-04-30T08:00:46.274Z,7.28
2019-04-30T08:03:36.217Z,7.17
2019-04-30T08:06:25.172Z,7.40
2019-04-30T08:09:13.285Z,7.42
2019-04-30T08:12:05.444Z,7.72
2019-04-30T08:14:52.744Z,7.75
2019-04-30T08:17:40.266Z,7.83
2019-04-30T08:20:27.198Z,7.62
2019-04-30T08:23:32.910Z,7.60
2019-04-30T08:26:05.384Z,8.33
2019-04-30T08:28:52.731Z,7.22
2019-04-30T08:31:40.864Z,7.87
2019-04-30T08:34:29.243Z,7.15
2019-04-30T08:37:19.993Z,7.75
2019-04-30T08:40:08.781Z,9.18
2019-04-30T08:42:56.054Z,9.35
2019-04-30T08:45:43.250Z,8.73
2019-04-30T08:48:45.424Z,7.87
2019-04-30T08:51:21.064Z,7.90
2019-04-30T08:54:09.588Z,8.80
2019-04-30T08:56:56.351Z,8.58
2019-04-30T08:59:44.274Z,7.85
2019-04-30T09:02:31.524Z,7.62
2019-04-30T09:05:24.083Z,7.42
2019-04-30T09:08:13.432Z,7.45
2019-04-30T09:11:00.672Z,7.92
2019-04-30T09:13:48.852Z,7.55
2019-04-30T09:16:36.796Z,7.28
2019-04-30T09:19:24.389Z,7.60
2019-04-30T09:22:15.132Z,7.70
2019-04-30T09:25:00.770Z,8.03
2019-04-30T09:27:48.768Z,8.03
2019-04-30T09:30:38.573Z,7.70
2019-04-30T09:33:25.690Z,7.15
2019-04-30T09:36:12.638Z,6.95
2019-04-30T09:39:01.712Z,8.13
2019-04-30T09:41:49.566Z,7.70
2019-04-30T09:44:38.913Z,8.38
2019-04-30T09:47:26.245Z,7.60
2019-04-30T09:50:15.518Z,8.75
2019-04-30T09:53:04.184Z,8.38
2019-04-30T09:55:51.181Z,7.67
2019-04-30T09:58:39.407Z,7.35
2019-04-30T10:01:26.336Z,8.10
2019-04-30T10:04:14.207Z,7.08
2019-04-30T10:07:04.235Z,6.80
2019-04-30T10:09:51.808Z,6.28
2019-04-30T10:12:39.249Z,6.20
2019-04-30T10:15:33.974Z,5.72
2019-04-30T10:18:20.937Z,6.20
2019-04-30T10:21:09.082Z,5.53
2019-04-30T10:24:11.870Z,4.85
2019-04-30T10:26:47.300Z,5.25
2019-04-30T10:29:34.690Z,5.60
2019-04-30T10:32:21.932Z,4.95
2019-04-30T10:35:09.228Z,5.47
2019-04-30T10:37:56.404Z,5.03
2019-04-30T10:40:44.975Z,5.03
2019-04-30T10:43:33.135Z,5.03
2019-04-30T10:46:20.484Z,4.70
2019-04-30T10:49:09.090Z,4.50
2019-04-30T10:52:00.811Z,4.30
2019-04-30T10:54:46.642Z,4.25
2019-04-30T10:57:34.760Z,4.20
2019-04-30T11:00:38.871Z,4.62
2019-04-30T11:03:25.701Z,4.25
2019-04-30T11:06:16.796Z,5.15
2019-04-30T11:09:07.830Z,4.83
2019-04-30T11:11:55.013Z,5.20
2019-04-30T11:14:42.556Z,4.67
2019-04-30T11:17:33.018Z,5.50
2019-04-30T11:20:22.267Z,5.28
2019-04-30T11:23:14.544Z,6.05
2019-04-30T11:26:03.641Z,4.90
2019-04-30T11:28:51.660Z,5.05
2019-04-30T11:31:40.996Z,5.42
2019-04-30T11:34:30.104Z,4.83
2019-04-30T11:37:18.625Z,4.90
2019-04-30T11:40:07.727Z,5.40
2019-04-30T11:42:55.116Z,5.28
2019-04-30T11:45:54.143Z,5.55
2019-04-30T11:48:41.704Z,5.37
2019-04-30T11:51:30.677Z,5.15
2019-04-30T11:54:18.739Z,5.70
2019-04-30T11:57:06.256Z,9.40
2019-04-30T11:59:53.335Z,28.25
2019-04-30T12:02:41.826Z,25.10
2019-04-30T12:05:29.074Z,12.50
2019-04-30T12:08:19.442Z,8.33
2019-04-30T12:11:07.968Z,7.35
2019-04-30T12:13:55.750Z,7.37
2019-04-30T12:16:43.149Z,6.08
2019-04-30T12:19:30.324Z,5.83
2019-04-30T12:22:20.036Z,6.05
2019-04-30T12:25:07.368Z,5.25
2019-04-30T12:27:54.598Z,5.83
2019-04-30T12:30:41.790Z,5.40
2019-04-30T12:33:29.347Z,5.78
2019-04-30T12:36:18.812Z,5.42
2019-04-30T12:39:06.950Z,6.12
2019-04-30T12:41:54.227Z,6.10
2019-04-30T12:44:41.066Z,6.75
2019-04-30T12:47:30.362Z,6.33
2019-04-30T12:50:19.797Z,7.25
2019-04-30T12:53:09.416Z,6.42
2019-04-30T12:56:04.331Z,5.85
2019-04-30T12:58:51.499Z,5.83
2019-04-30T13:01:39.950Z,5.70
2019-04-30T13:04:29.390Z,5.72
2019-04-30T13:07:20.237Z,5.97
2019-04-30T13:10:08.850Z,5.33
2019-04-30T13:12:57.066Z,5.72
2019-04-30T13:15:44.532Z,5.92
2019-04-30T13:18:32.607Z,5.67
2019-04-30T13:21:19.959Z,5.65
2019-04-30T13:24:07.015Z,5.97
2019-04-30T13:26:54.162Z,6.08
2019-04-30T13:29:49.132Z,6.17
2019-04-30T13:32:39.473Z,5.72
2019-04-30T13:35:26.664Z,6.20
2019-04-30T13:38:24.808Z,6.35
2019-04-30T13:41:13.978Z,5.20
2019-04-30T13:44:02.480Z,5.72
2019-04-30T13:46:50.065Z,5.17
2019-04-30T13:49:39.375Z,6.42
2019-04-30T13:52:26.039Z,7.05
2019-04-30T13:55:14.399Z,7.00
2019-04-30T13:58:03.715Z,5.72
2019-04-30T14:00:51.017Z,5.20
2019-04-30T14:03:48.998Z,5.87
2019-04-30T14:06:49.596Z,5.55
2019-04-30T14:09:36.938Z,5.28
2019-04-30T14:12:24.555Z,6.55
2019-04-30T14:15:12.193Z,6.45
2019-04-30T14:18:02.468Z,5.60
2019-04-30T14:20:50.029Z,6.03
2019-04-30T14:23:39.593Z,6.90
2019-04-30T14:26:29.108Z,6.47
2019-04-30T14:29:15.707Z,6.50
2019-04-30T14:32:03.086Z,6.10
2019-04-30T14:34:50.753Z,6.95
2019-04-30T14:37:39.204Z,6.83
2019-04-30T14:40:26.916Z,6.83
2019-04-30T14:43:20.118Z,7.55
2019-04-30T14:46:12.604Z,7.37
2019-04-30T14:49:21.121Z,7.05
2019-04-30T14:52:09.192Z,6.75
2019-04-30T14:55:16.160Z,7.33
2019-04-30T15:00:53.637Z,6.78
2019-04-30T15:03:41.331Z,6.42
2019-04-30T15:06:28.277Z,6.53
2019-04-30T15:09:15.882Z,7.08
2019-04-30T15:12:04.596Z,7.12
2019-04-30T15:14:52.373Z,6.78
2019-04-30T15:17:41.200Z,7.10
2019-04-30T15:20:29.637Z,6.35
2019-04-30T15:23:30.957Z,6.28
2019-04-30T15:26:22.923Z,6.20
2019-04-30T15:29:11.768Z,6.58
2019-04-30T15:31:55.985Z,7.30
2019-04-30T15:34:43.196Z,7.62
2019-04-30T15:37:30.668Z,6.83
2019-04-30T15:40:18.926Z,6.40
2019-04-30T15:43:07.168Z,6.78
2019-04-30T15:45:57.119Z,6.72
2019-04-30T15:48:43.191Z,6.22
2019-04-30T15:51:30.471Z,6.50
2019-04-30T15:54:19.021Z,6.12
2019-04-30T15:57:08.918Z,6.37
2019-04-30T15:59:56.378Z,6.22
2019-04-30T16:02:54.786Z,6.70
2019-04-30T16:05:37.037Z,6.78
2019-04-30T16:08:35.597Z,6.90
2019-04-30T16:11:30.434Z,7.05
2019-04-30T16:14:26.118Z,6.53
2019-04-30T16:17:23.444Z,6.47
2019-04-30T16:20:11.237Z,6.87
2019-04-30T16:22:59.497Z,6.40
2019-04-30T16:25:46.780Z,6.90
2019-04-30T16:28:35.311Z,6.42
2019-04-30T16:31:22.233Z,7.33
2019-04-30T16:34:09.804Z,6.97
2019-04-30T16:36:58.924Z,7.03
2019-04-30T16:39:46.453Z,7.00
2019-04-30T16:42:33.745Z,6.72
2019-04-30T16:45:21.303Z,6.50
2019-04-30T16:48:10.089Z,7.10
2019-04-30T16:50:58.677Z,6.30
2019-04-30T16:53:45.713Z,6.60
2019-04-30T16:56:32.711Z,7.20
2019-04-30T16:59:34.076Z,6.83
2019-04-30T17:02:23.301Z,7.12
2019-04-30T17:05:19.792Z,7.58
2019-04-30T17:08:09.379Z,6.67
2019-04-30T17:11:10.565Z,6.75
2019-04-30T17:13:59.277Z,6.40
2019-04-30T17:16:48.914Z,6.92
2019-04-30T17:19:35.836Z,6.28
2019-04-30T17:22:23.077Z,7.05
2019-04-30T17:25:10.707Z,6.80
2019-04-30T17:28:01.110Z,6.70
2019-04-30T17:30:49.014Z,6.58
2019-04-30T17:33:35.782Z,7.15
2019-04-30T17:36:23.327Z,6.78
2019-04-30T17:39:11.982Z,6.95
2019-04-30T17:41:59.224Z,7.55
2019-04-30T17:44:56.748Z,7.15
2019-04-30T17:47:35.103Z,7.17
2019-04-30T17:50:22.632Z,6.75
2019-04-30T17:53:09.827Z,6.87
2019-04-30T17:55:57.039Z,6.78
2019-04-30T17:58:44.568Z,6.90
2019-04-30T18:01:31.752Z,7.72
2019-04-30T18:04:22.021Z,6.78
2019-04-30T18:07:09.926Z,6.67
2019-04-30T18:09:58.611Z,6.80
2019-04-30T18:12:46.111Z,7.87
2019-04-30T18:15:33.669Z,6.95
2019-04-30T18:18:22.465Z,6.65
2019-04-30T18:21:13.871Z,6.70
2019-04-30T18:24:12.042Z,6.37
2019-04-30T18:27:15.746Z,6.60
2019-04-30T18:30:06.175Z,6.28
2019-04-30T18:32:52.823Z,6.25
2019-04-30T18:35:40.263Z,7.80
2019-04-30T18:38:29.303Z,6.87
2019-04-30T18:41:16.610Z,6.78
2019-04-30T18:44:04.364Z,7.33
2019-04-30T18:46:52.171Z,7.03
2019-04-30T18:52:26.799Z,6.80
2019-04-30T18:55:14.013Z,7.45
2019-04-30T18:58:01.452Z,7.03
2019-04-30T19:00:49.503Z,7.92
2019-04-30T19:03:39.026Z,7.53
2019-04-30T19:06:26.716Z,7.97
2019-04-30T19:09:25.063Z,7.47
2019-04-30T19:12:19.303Z,7.35
2019-04-30T19:15:08.367Z,8.50
2019-04-30T19:18:09.412Z,7.40
2019-04-30T19:21:00.052Z,7.28
2019-04-30T19:23:48.740Z,7.85
2019-04-30T19:26:36.204Z,8.30
2019-04-30T19:29:23.525Z,8.83
2019-04-30T19:32:11.182Z,8.58
2019-04-30T19:34:59.060Z,8.00
2019-04-30T19:37:48.573Z,7.42
2019-04-30T19:40:35.378Z,8.18
2019-04-30T19:43:23.069Z,8.73
2019-04-30T19:46:10.460Z,7.72
2019-04-30T19:48:58.567Z,8.33
2019-04-30T19:51:46.111Z,7.55
2019-04-30T19:54:33.749Z,7.67
2019-04-30T19:57:21.037Z,7.83
2019-04-30T20:00:09.337Z,8.53
2019-04-30T20:02:58.079Z,8.20
2019-04-30T20:05:45.800Z,8.80
2019-04-30T20:08:32.961Z,7.85
2019-04-30T20:11:20.417Z,8.18
2019-04-30T20:14:08.597Z,8.58
2019-04-30T20:16:58.855Z,8.65
2019-04-30T20:19:45.204Z,7.85
2019-04-30T20:22:32.480Z,8.45
2019-04-30T20:25:20.072Z,8.78
2019-04-30T20:28:07.630Z,8.10
2019-04-30T20:30:55.073Z,8.25
2019-04-30T20:33:42.399Z,8.40
2019-04-30T20:36:29.549Z,7.80
2019-04-30T20:39:18.603Z,8.50
2019-04-30T20:42:05.948Z,8.73
2019-04-30T20:44:53.416Z,8.30
2019-04-30T20:47:41.257Z,7.92
2019-04-30T20:50:28.898Z,8.10
2019-04-30T20:53:16.139Z,8.88
2019-04-30T20:56:03.265Z,8.83
2019-04-30T20:58:57.813Z,9.00
2019-04-30T21:01:39.698Z,9.40
2019-04-30T21:04:26.940Z,7.90
2019-04-30T21:07:14.211Z,9.68
2019-04-30T21:12:49.868Z,8.53
2019-04-30T21:15:36.529Z,9.95
2019-04-30T21:18:23.964Z,9.48
2019-04-30T21:21:11.125Z,8.95
2019-04-30T21:23:58.446Z,9.33
2019-04-30T21:26:45.725Z,10.00
2019-04-30T21:29:33.178Z,9.68
2019-04-30T21:32:22.033Z,10.03
2019-04-30T21:35:26.096Z,10.18
2019-04-30T21:38:13.462Z,9.93
2019-04-30T21:41:01.251Z,10.50
2019-04-30T21:43:48.756Z,10.18
2019-04-30T21:46:37.608Z,10.15
2019-04-30T21:49:25.104Z,10.93
2019-04-30T21:52:12.549Z,11.68
2019-04-30T21:54:59.697Z,11.78
2019-04-30T21:57:49.630Z,11.38
2019-04-30T22:00:40.947Z,10.55
2019-04-30T22:03:29.336Z,10.45
2019-04-30T22:06:16.512Z,11.08
2019-04-30T22:09:05.107Z,10.70
2019-04-30T22:11:52.293Z,11.43
2019-04-30T22:14:39.645Z,10.50
2019-04-30T22:17:27.019Z,10.72
2019-04-30T22:23:00.502Z,10.38
2019-04-30T22:25:49.088Z,10.32
2019-04-30T22:28:36.106Z,11.38
2019-04-30T22:31:23.574Z,11.30
2019-04-30T22:34:11.000Z,11.35
2019-04-30T22:36:58.628Z,10.75
2019-04-30T22:39:53.647Z,10.88
2019-04-30T22:42:40.910Z,11.33
2019-04-30T22:45:40.468Z,10.93
2019-04-30T22:48:28.720Z,11.30
2019-04-30T22:51:15.684Z,12.10
2019-04-30T22:54:03.104Z,11.25
2019-04-30T22:56:50.499Z,11.53
2019-04-30T22:59:49.498Z,11.48
2019-04-30T23:02:28.463Z,11.78
2019-04-30T23:05:16.679Z,11.40
2019-04-30T23:08:03.793Z,12.15
2019-04-30T23:10:51.178Z,12.37
2019-04-30T23:13:38.442Z,12.60
2019-04-30T23:16:25.483Z,11.90
2019-04-30T23:19:12.719Z,12.63
2019-04-30T23:21:59.763Z,11.45
2019-04-30T23:24:47.015Z,11.63
2019-04-30T23:27:34.652Z,12.85
2019-04-30T23:30:22.120Z,12.43
2019-04-30T23:33:09.684Z,13.58
2019-04-30T23:35:57.116Z,13.53
2019-04-30T23:38:44.276Z,13.35
2019-04-30T23:41:32.003Z,14.30
2019-04-30T23:44:19.493Z,13.22
2019-04-30T23:47:06.714Z,12.85
2019-04-30T23:49:54.114Z,13.32
2019-04-30T23:52:41.295Z,11.88
2019-04-30T23:55:28.696Z,12.65
2019-04-30T23:58:15.843Z,12.55
